createdAt,value
2018-08-16T00:00:43.355Z,0.00
2018-08-16T00:01:43.361Z,0.00
2018-08-16T00:02:43.363Z,0.00
2018-08-16T00:03:43.365Z,0.00
2018-08-16T00:04:43.359Z,0.00
2018-08-16T00:05:43.360Z,0.00
2018-08-16T00:06:43.360Z,0.00
2018-08-16T00:07:43.362Z,0.00
2018-08-16T00:08:43.359Z,0.00
2018-08-16T00:09:43.359Z,0.00
2018-08-16T00:10:43.361Z,0.00
2018-08-16T00:11:43.362Z,0.00
2018-08-16T00:12:43.359Z,0.00
2018-08-16T00:13:43.359Z,0.00
2018-08-16T00:14:43.358Z,0.00
2018-08-16T00:15:43.359Z,0.00
2018-08-16T00:16:43.361Z,0.00
2018-08-16T00:17:43.361Z,0.00
2018-08-16T00:18:43.359Z,0.00
2018-08-16T00:19:43.361Z,0.00
2018-08-16T00:20:43.367Z,0.00
2018-08-16T00:21:43.360Z,0.00
2018-08-16T00:22:43.363Z,0.00
2018-08-16T00:23:43.360Z,0.00
2018-08-16T00:24:43.360Z,0.00
2018-08-16T00:25:43.362Z,0.00
2018-08-16T00:26:43.363Z,0.00
2018-08-16T00:27:43.364Z,0.00
2018-08-16T00:28:43.363Z,0.00
2018-08-16T00:29:43.360Z,0.00
2018-08-16T00:30:43.360Z,0.00
2018-08-16T00:31:43.360Z,0.00
2018-08-16T00:32:43.364Z,0.00
2018-08-16T00:33:43.365Z,0.00
2018-08-16T00:34:43.361Z,0.00
2018-08-16T00:35:43.358Z,0.00
2018-08-16T00:36:43.361Z,0.00
2018-08-16T00:37:43.361Z,0.00
2018-08-16T00:38:43.361Z,0.00
2018-08-16T00:39:43.360Z,0.00
2018-08-16T00:40:43.362Z,0.00
2018-08-16T00:41:43.360Z,0.00
2018-08-16T00:42:43.361Z,0.00
2018-08-16T00:43:43.360Z,0.00
2018-08-16T00:44:43.361Z,0.00
2018-08-16T00:45:43.361Z,0.00
2018-08-16T00:46:43.360Z,0.00
2018-08-16T00:47:43.361Z,0.00
2018-08-16T00:48:43.360Z,0.00
2018-08-16T00:49:43.369Z,0.00
2018-08-16T00:50:43.361Z,0.00
2018-08-16T00:51:43.361Z,0.00
2018-08-16T00:52:43.401Z,0.00
2018-08-16T00:53:43.360Z,0.00
2018-08-16T00:54:43.361Z,0.00
2018-08-16T00:55:43.361Z,0.00
2018-08-16T00:56:43.358Z,0.00
2018-08-16T00:57:43.361Z,0.00
2018-08-16T00:58:43.358Z,0.00
2018-08-16T00:59:43.357Z,0.00
2018-08-16T01:00:43.359Z,0.00
2018-08-16T01:01:43.364Z,0.00
2018-08-16T01:02:43.360Z,0.00
2018-08-16T01:03:43.361Z,0.00
2018-08-16T01:04:43.358Z,0.00
2018-08-16T01:05:43.359Z,0.00
2018-08-16T01:06:43.358Z,0.00
2018-08-16T01:07:43.360Z,0.00
2018-08-16T01:08:43.359Z,0.00
2018-08-16T01:09:43.364Z,0.00
2018-08-16T01:10:43.362Z,0.00
2018-08-16T01:11:43.358Z,0.00
2018-08-16T01:12:43.362Z,0.00
2018-08-16T01:13:43.359Z,0.00
2018-08-16T01:14:43.365Z,0.00
2018-08-16T01:15:43.364Z,0.00
2018-08-16T01:16:43.358Z,0.00
2018-08-16T01:17:43.361Z,0.00
2018-08-16T01:18:43.360Z,0.00
2018-08-16T01:19:43.361Z,0.00
2018-08-16T01:20:43.356Z,0.00
2018-08-16T01:21:43.360Z,0.00
2018-08-16T01:22:43.359Z,0.00
2018-08-16T01:23:43.354Z,0.00
2018-08-16T01:24:43.356Z,0.00
2018-08-16T01:25:43.359Z,0.00
2018-08-16T01:26:43.358Z,0.00
2018-08-16T01:27:43.359Z,0.00
2018-08-16T01:28:43.356Z,0.00
2018-08-16T01:29:43.362Z,0.00
2018-08-16T01:30:43.359Z,0.00
2018-08-16T01:31:43.405Z,0.00
2018-08-16T01:32:43.357Z,0.00
2018-08-16T01:33:43.363Z,0.00
2018-08-16T01:34:43.368Z,0.00
2018-08-16T01:35:43.456Z,0.00
2018-08-16T01:36:43.358Z,0.00
2018-08-16T01:37:43.359Z,0.00
2018-08-16T01:38:43.360Z,0.00
2018-08-16T01:39:43.359Z,0.00
2018-08-16T01:40:43.360Z,0.00
2018-08-16T01:41:43.358Z,0.00
2018-08-16T01:42:43.360Z,0.00
2018-08-16T01:43:43.360Z,0.00
2018-08-16T01:44:43.355Z,0.00
2018-08-16T01:45:43.357Z,0.00
2018-08-16T01:46:43.361Z,0.00
2018-08-16T01:47:43.359Z,0.00
2018-08-16T01:48:43.359Z,0.00
2018-08-16T01:49:43.359Z,0.00
2018-08-16T01:50:43.360Z,0.00
2018-08-16T01:51:43.357Z,0.00
2018-08-16T01:52:43.357Z,0.00
2018-08-16T01:53:43.356Z,0.00
2018-08-16T01:54:43.358Z,0.00
2018-08-16T01:55:43.358Z,0.00
2018-08-16T01:56:43.356Z,0.00
2018-08-16T01:57:43.361Z,0.00
2018-08-16T01:58:43.359Z,0.00
2018-08-16T01:59:43.355Z,0.00
2018-08-16T02:00:43.355Z,0.00
2018-08-16T02:01:43.356Z,0.00
2018-08-16T02:02:43.357Z,0.00
2018-08-16T02:03:43.358Z,0.00
2018-08-16T02:04:43.356Z,0.00
2018-08-16T02:05:43.361Z,0.00
2018-08-16T02:06:43.359Z,0.00
2018-08-16T02:07:43.358Z,0.00
2018-08-16T02:08:43.354Z,0.00
2018-08-16T02:09:43.351Z,0.00
2018-08-16T02:10:43.355Z,0.00
2018-08-16T02:11:43.353Z,0.00
2018-08-16T02:12:43.353Z,0.00
2018-08-16T02:13:43.356Z,0.00
2018-08-16T02:14:43.357Z,0.00
2018-08-16T02:15:43.352Z,0.00
2018-08-16T02:16:43.351Z,0.00
2018-08-16T02:17:43.352Z,0.00
2018-08-16T02:18:43.349Z,0.00
2018-08-16T02:19:43.350Z,0.00
2018-08-16T02:20:43.348Z,0.00
2018-08-16T02:21:43.349Z,0.00
2018-08-16T02:22:43.350Z,0.00
2018-08-16T02:23:43.348Z,0.00
2018-08-16T02:24:43.350Z,0.00
2018-08-16T02:25:43.350Z,0.00
2018-08-16T02:26:43.346Z,0.00
2018-08-16T02:27:43.346Z,0.00
2018-08-16T02:28:43.346Z,0.00
2018-08-16T02:29:43.348Z,0.00
2018-08-16T02:30:43.345Z,0.00
2018-08-16T02:31:43.347Z,0.00
2018-08-16T02:32:43.345Z,0.00
2018-08-16T02:33:43.407Z,0.00
2018-08-16T02:34:43.344Z,0.00
2018-08-16T02:35:43.341Z,0.00
2018-08-16T02:36:43.351Z,0.00
2018-08-16T02:37:43.359Z,0.00
2018-08-16T02:38:43.342Z,0.00
2018-08-16T02:39:43.341Z,0.00
2018-08-16T02:40:43.340Z,0.00
2018-08-16T02:41:43.344Z,0.00
2018-08-16T02:42:43.340Z,0.00
2018-08-16T02:43:43.340Z,0.00
2018-08-16T02:44:43.338Z,0.00
2018-08-16T02:45:43.336Z,0.00
2018-08-16T02:46:43.339Z,0.00
2018-08-16T02:47:43.337Z,0.00
2018-08-16T02:48:43.337Z,0.00
2018-08-16T02:49:43.334Z,0.00
2018-08-16T02:50:43.358Z,0.00
2018-08-16T02:51:43.335Z,0.00
2018-08-16T02:52:43.337Z,0.00
2018-08-16T02:53:43.332Z,0.00
2018-08-16T02:54:43.333Z,0.00
2018-08-16T02:55:43.332Z,0.00
2018-08-16T02:56:43.332Z,0.00
2018-08-16T02:57:43.332Z,0.00
2018-08-16T02:58:43.336Z,0.00
2018-08-16T02:59:43.330Z,0.00
2018-08-16T03:00:43.329Z,0.00
2018-08-16T03:01:43.333Z,0.00
2018-08-16T03:02:43.333Z,0.00
2018-08-16T03:03:43.330Z,0.00
2018-08-16T03:04:43.328Z,0.00
2018-08-16T03:05:43.328Z,0.00
2018-08-16T03:06:43.330Z,0.00
2018-08-16T03:07:43.328Z,0.00
2018-08-16T03:08:43.326Z,0.00
2018-08-16T03:09:43.325Z,0.00
2018-08-16T03:10:43.325Z,0.00
2018-08-16T03:11:43.328Z,0.00
2018-08-16T03:12:43.324Z,0.00
2018-08-16T03:13:43.322Z,0.00
2018-08-16T03:14:43.323Z,0.00
2018-08-16T03:15:43.326Z,0.00
2018-08-16T03:16:43.322Z,4.00
2018-08-16T03:17:43.323Z,4.00
2018-08-16T03:18:43.320Z,0.00
2018-08-16T03:19:43.321Z,4.00
2018-08-16T03:20:43.323Z,4.00
2018-08-16T03:21:43.319Z,4.00
2018-08-16T03:22:43.320Z,4.00
2018-08-16T03:23:43.319Z,8.00
2018-08-16T03:24:43.320Z,4.00
2018-08-16T03:25:43.318Z,4.00
2018-08-16T03:26:43.318Z,12.00
2018-08-16T03:27:43.318Z,12.00
2018-08-16T03:28:43.318Z,12.00
2018-08-16T03:29:43.317Z,16.00
2018-08-16T03:30:43.316Z,12.00
2018-08-16T03:31:43.316Z,16.00
2018-08-16T03:32:43.313Z,20.00
2018-08-16T03:33:43.312Z,24.00
2018-08-16T03:34:43.314Z,24.00
2018-08-16T03:35:43.310Z,28.00
2018-08-16T03:36:43.312Z,32.00
2018-08-16T03:37:43.312Z,40.00
2018-08-16T03:38:43.311Z,44.00
2018-08-16T03:39:43.312Z,48.00
2018-08-16T03:40:43.310Z,52.00
2018-08-16T03:41:43.308Z,60.00
2018-08-16T03:42:43.308Z,68.00
2018-08-16T03:43:43.309Z,76.00
2018-08-16T03:44:43.307Z,84.00
2018-08-16T03:45:43.310Z,92.00
2018-08-16T03:46:43.305Z,100.00
2018-08-16T03:47:43.305Z,112.00
2018-08-16T03:48:43.304Z,124.00
2018-08-16T03:49:43.306Z,136.00
2018-08-16T03:50:43.310Z,156.00
2018-08-16T03:51:43.304Z,168.00
2018-08-16T03:52:43.302Z,184.00
2018-08-16T03:53:43.300Z,204.00
2018-08-16T03:54:43.300Z,224.00
2018-08-16T03:55:43.300Z,244.00
2018-08-16T03:56:43.301Z,268.00
2018-08-16T03:57:43.305Z,292.00
2018-08-16T03:58:43.298Z,316.00
2018-08-16T03:59:43.299Z,344.00
2018-08-16T04:00:43.298Z,372.00
2018-08-16T04:01:43.296Z,400.00
2018-08-16T04:02:43.295Z,432.00
2018-08-16T04:03:43.297Z,460.00
2018-08-16T04:04:43.295Z,500.00
2018-08-16T04:05:43.295Z,532.00
2018-08-16T04:06:43.292Z,568.00
2018-08-16T04:07:43.296Z,604.00
2018-08-16T04:08:43.291Z,644.00
2018-08-16T04:09:43.292Z,680.00
2018-08-16T04:10:43.295Z,716.00
2018-08-16T04:11:43.291Z,760.00
2018-08-16T04:12:43.292Z,800.00
2018-08-16T04:13:43.290Z,844.00
2018-08-16T04:14:43.289Z,884.00
2018-08-16T04:15:43.293Z,928.00
2018-08-16T04:16:43.293Z,972.00
2018-08-16T04:17:43.288Z,1016.00
2018-08-16T04:18:43.287Z,1060.00
2018-08-16T04:19:43.289Z,1100.00
2018-08-16T04:20:43.286Z,1144.00
2018-08-16T04:21:43.289Z,1192.00
2018-08-16T04:22:43.285Z,1236.00
2018-08-16T04:23:43.340Z,1288.00
2018-08-16T04:24:43.283Z,1344.00
2018-08-16T04:25:43.284Z,1392.00
2018-08-16T04:26:43.287Z,1448.00
2018-08-16T04:27:43.284Z,1496.00
2018-08-16T04:28:43.283Z,1544.00
2018-08-16T04:29:43.283Z,1596.00
2018-08-16T04:30:43.281Z,1648.00
2018-08-16T04:31:43.286Z,1696.00
2018-08-16T04:32:43.284Z,1748.00
2018-08-16T04:33:43.281Z,1800.00
2018-08-16T04:34:43.281Z,1856.00
2018-08-16T04:35:43.284Z,1908.00
2018-08-16T04:36:43.280Z,1964.00
2018-08-16T04:37:43.284Z,2024.00
2018-08-16T04:38:43.280Z,2080.00
2018-08-16T04:39:43.286Z,2140.00
2018-08-16T04:40:43.280Z,2200.00
2018-08-16T04:41:43.422Z,2264.00
2018-08-16T04:42:43.279Z,2328.00
2018-08-16T04:43:43.280Z,2396.00
2018-08-16T04:44:43.278Z,2460.00
2018-08-16T04:45:43.278Z,2532.00
2018-08-16T04:46:43.280Z,2624.00
2018-08-16T04:47:43.277Z,2716.00
2018-08-16T04:48:43.277Z,2820.00
2018-08-16T04:49:43.275Z,2920.00
2018-08-16T04:50:43.279Z,3036.00
2018-08-16T04:51:43.277Z,3156.00
2018-08-16T04:52:43.278Z,3280.00
2018-08-16T04:53:43.276Z,3384.00
2018-08-16T04:54:43.277Z,3476.00
2018-08-16T04:55:43.276Z,3564.00
2018-08-16T04:56:43.312Z,3644.00
2018-08-16T04:57:43.276Z,3712.00
2018-08-16T04:58:43.277Z,3780.00
2018-08-16T04:59:43.277Z,3828.00
2018-08-16T05:00:43.276Z,3880.00
2018-08-16T05:01:43.274Z,3932.00
2018-08-16T05:02:43.277Z,3976.00
2018-08-16T05:03:43.282Z,4004.00
2018-08-16T05:04:43.276Z,4044.00
2018-08-16T05:05:43.274Z,4088.00
2018-08-16T05:06:43.277Z,4140.00
2018-08-16T05:07:43.280Z,4204.00
2018-08-16T05:08:43.280Z,4252.00
2018-08-16T05:09:43.278Z,4304.00
2018-08-16T05:10:43.281Z,4364.00
2018-08-16T05:11:43.279Z,4416.00
2018-08-16T05:12:43.278Z,4456.00
2018-08-16T05:13:43.280Z,4504.00
2018-08-16T05:14:43.282Z,4548.00
2018-08-16T05:15:43.282Z,4612.00
2018-08-16T05:16:43.284Z,4648.00
2018-08-16T05:17:43.285Z,4728.00
2018-08-16T05:18:43.284Z,4816.00
2018-08-16T05:19:43.287Z,4900.00
2018-08-16T05:20:43.288Z,4980.00
2018-08-16T05:21:43.292Z,5048.00
2018-08-16T05:22:43.290Z,5108.00
2018-08-16T05:23:43.339Z,5180.00
2018-08-16T05:24:43.292Z,5252.00
2018-08-16T05:25:43.292Z,5324.00
2018-08-16T05:26:43.296Z,5392.00
2018-08-16T05:27:43.298Z,5460.00
2018-08-16T05:28:43.300Z,5540.00
2018-08-16T05:29:43.300Z,5604.00
2018-08-16T05:30:43.306Z,5660.00
2018-08-16T05:31:43.323Z,5712.00
2018-08-16T05:32:43.307Z,5756.00
2018-08-16T05:33:43.309Z,5816.00
2018-08-16T05:34:43.311Z,5884.00
2018-08-16T05:35:43.312Z,5960.00
2018-08-16T05:36:43.315Z,6020.00
2018-08-16T05:37:43.316Z,6032.00
2018-08-16T05:38:43.319Z,6144.00
2018-08-16T05:39:43.320Z,6240.00
2018-08-16T05:40:43.323Z,6328.00
2018-08-16T05:41:43.326Z,6412.00
2018-08-16T05:42:43.327Z,6492.00
2018-08-16T05:43:43.331Z,6560.00
2018-08-16T05:44:43.335Z,6640.00
2018-08-16T05:45:43.341Z,6728.00
2018-08-16T05:46:43.338Z,6848.00
2018-08-16T05:47:43.345Z,7032.00
2018-08-16T05:48:43.344Z,7960.00
2018-08-16T05:49:43.346Z,10136.00
2018-08-16T05:50:43.368Z,11696.00
2018-08-16T05:51:43.358Z,12256.00
2018-08-16T05:52:43.355Z,12184.00
2018-08-16T05:53:43.360Z,12404.00
2018-08-16T05:54:43.363Z,12384.00
2018-08-16T05:55:43.374Z,13120.00
2018-08-16T05:56:43.370Z,14272.00
2018-08-16T05:57:43.373Z,14624.00
2018-08-16T05:58:43.378Z,14656.00
2018-08-16T05:59:43.377Z,14176.00
2018-08-16T06:00:43.384Z,15296.00
2018-08-16T06:01:43.387Z,15456.00
2018-08-16T06:02:43.392Z,14880.00
2018-08-16T06:03:43.397Z,14912.00
2018-08-16T06:04:43.399Z,15424.00
2018-08-16T06:05:43.401Z,15776.00
2018-08-16T06:06:43.411Z,16448.00
2018-08-16T06:07:43.486Z,15584.00
2018-08-16T06:08:43.414Z,14624.00
2018-08-16T06:09:43.419Z,14976.00
2018-08-16T06:10:43.425Z,16256.00
2018-08-16T06:11:43.429Z,15968.00
2018-08-16T06:12:43.432Z,16672.00
2018-08-16T06:13:43.439Z,17504.00
2018-08-16T06:14:43.441Z,16960.00
2018-08-16T06:15:43.448Z,16672.00
2018-08-16T06:16:43.454Z,17056.00
2018-08-16T06:17:43.453Z,17952.00
2018-08-16T06:18:43.461Z,19456.00
2018-08-16T06:19:43.467Z,19456.00
2018-08-16T06:20:43.470Z,18592.00
2018-08-16T06:21:43.475Z,20256.00
2018-08-16T06:22:43.481Z,20096.00
2018-08-16T06:23:43.487Z,19040.00
2018-08-16T06:24:43.494Z,18240.00
2018-08-16T06:25:43.502Z,18528.00
2018-08-16T06:26:43.498Z,20288.00
2018-08-16T06:27:43.506Z,21632.00
2018-08-16T06:28:43.512Z,21408.00
2018-08-16T06:29:43.517Z,22080.00
2018-08-16T06:30:43.523Z,22112.00
2018-08-16T06:31:43.688Z,20320.00
2018-08-16T06:32:43.533Z,20000.00
2018-08-16T06:33:43.546Z,19232.00
2018-08-16T06:34:43.595Z,19104.00
2018-08-16T06:35:43.548Z,20640.00
2018-08-16T06:36:43.560Z,22528.00
2018-08-16T06:37:43.568Z,24384.00
2018-08-16T06:38:43.616Z,23552.00
2018-08-16T06:39:43.580Z,22368.00
2018-08-16T06:40:43.582Z,21536.00
2018-08-16T06:41:43.587Z,23456.00
2018-08-16T06:42:43.590Z,25280.00
2018-08-16T06:43:43.606Z,24928.00
2018-08-16T06:44:43.603Z,25824.00
2018-08-16T06:45:43.610Z,29312.00
2018-08-16T06:46:43.617Z,28224.00
2018-08-16T06:47:43.621Z,28032.00
2018-08-16T06:48:43.628Z,24416.00
2018-08-16T06:49:43.633Z,25632.00
2018-08-16T06:50:43.643Z,29792.00
2018-08-16T06:51:43.650Z,25696.00
2018-08-16T06:52:43.735Z,25184.00
2018-08-16T06:53:43.663Z,25600.00
2018-08-16T06:54:43.666Z,26240.00
2018-08-16T06:55:43.940Z,29792.00
2018-08-16T06:56:43.684Z,28896.00
2018-08-16T06:57:43.688Z,24576.00
2018-08-16T06:58:43.703Z,26400.00
2018-08-16T06:59:43.703Z,32128.00
2018-08-16T07:00:43.708Z,34080.00
2018-08-16T07:01:43.714Z,37472.00
2018-08-16T07:02:43.722Z,35168.00
2018-08-16T07:03:43.726Z,27168.00
2018-08-16T07:04:43.754Z,25056.00
2018-08-16T07:05:43.744Z,23104.00
2018-08-16T07:06:43.775Z,28352.00
2018-08-16T07:07:43.752Z,36064.00
2018-08-16T07:08:43.772Z,37120.00
2018-08-16T07:09:43.771Z,33984.00
2018-08-16T07:10:43.777Z,26368.00
2018-08-16T07:11:43.783Z,22880.00
2018-08-16T07:12:43.790Z,26208.00
2018-08-16T07:13:43.798Z,31008.00
2018-08-16T07:14:43.806Z,35808.00
2018-08-16T07:15:43.815Z,35936.00
2018-08-16T07:16:43.821Z,32416.00
2018-08-16T07:17:43.826Z,25792.00
2018-08-16T07:18:43.939Z,19264.00
2018-08-16T07:19:43.842Z,19072.00
2018-08-16T07:20:43.847Z,22656.00
2018-08-16T07:21:43.857Z,25664.00
2018-08-16T07:22:43.865Z,28128.00
2018-08-16T07:23:43.870Z,28128.00
2018-08-16T07:24:43.936Z,24928.00
2018-08-16T07:25:43.885Z,22848.00
2018-08-16T07:26:43.894Z,21888.00
2018-08-16T07:27:43.902Z,23168.00
2018-08-16T07:28:43.910Z,26944.00
2018-08-16T07:29:43.918Z,29824.00
2018-08-16T07:30:43.921Z,31360.00
2018-08-16T07:31:43.931Z,32608.00
2018-08-16T07:32:43.938Z,32800.00
2018-08-16T07:33:43.948Z,32000.00
2018-08-16T07:34:43.956Z,29856.00
2018-08-16T07:35:43.969Z,27008.00
2018-08-16T07:36:43.974Z,25280.00
2018-08-16T07:37:43.985Z,26656.00
2018-08-16T07:38:43.989Z,30592.00
2018-08-16T07:39:44.025Z,33888.00
2018-08-16T07:40:44.002Z,36384.00
2018-08-16T07:41:44.013Z,38912.00
2018-08-16T07:42:44.020Z,40736.00
2018-08-16T07:43:44.028Z,40576.00
2018-08-16T07:44:44.039Z,39840.00
2018-08-16T07:45:44.200Z,35680.00
2018-08-16T07:46:44.057Z,32448.00
2018-08-16T07:47:44.066Z,31936.00
2018-08-16T07:48:44.089Z,31552.00
2018-08-16T07:49:44.114Z,29728.00
2018-08-16T07:50:44.087Z,29408.00
2018-08-16T07:51:44.364Z,30560.00
2018-08-16T07:52:44.328Z,35136.00
2018-08-16T07:53:44.109Z,41344.00
2018-08-16T07:54:44.126Z,40992.00
2018-08-16T07:55:44.128Z,41216.00
2018-08-16T07:56:44.283Z,45504.00
2018-08-16T07:57:44.164Z,40800.00
2018-08-16T07:58:44.154Z,33184.00
2018-08-16T07:59:44.162Z,32416.00
2018-08-16T08:00:44.170Z,29984.00
2018-08-16T08:01:44.183Z,27136.00
2018-08-16T08:02:44.192Z,30496.00
2018-08-16T08:03:44.197Z,30176.00
2018-08-16T08:04:44.207Z,28480.00
2018-08-16T08:05:44.213Z,26848.00
2018-08-16T08:06:44.224Z,27072.00
2018-08-16T08:07:44.239Z,25440.00
2018-08-16T08:08:44.257Z,19296.00
2018-08-16T08:09:44.261Z,20832.00
2018-08-16T08:10:44.260Z,31360.00
2018-08-16T08:11:44.266Z,36800.00
2018-08-16T08:12:44.280Z,37696.00
2018-08-16T08:13:44.286Z,53152.00
2018-08-16T08:14:44.292Z,61184.00
2018-08-16T08:15:44.299Z,63616.00
2018-08-16T08:16:44.314Z,63808.00
2018-08-16T08:17:44.316Z,63008.00
2018-08-16T08:18:44.327Z,61632.00
2018-08-16T08:19:44.333Z,61504.00
2018-08-16T08:20:44.346Z,61568.00
2018-08-16T08:21:44.361Z,61408.00
2018-08-16T08:22:44.359Z,62496.00
2018-08-16T08:23:44.371Z,64032.00
2018-08-16T08:24:44.377Z,59296.00
2018-08-16T08:25:44.386Z,49568.00
2018-08-16T08:26:44.392Z,59584.00
2018-08-16T08:27:44.406Z,61376.00
2018-08-16T08:28:44.477Z,57664.00
2018-08-16T08:29:44.420Z,59712.00
2018-08-16T08:30:44.430Z,65536.00
2018-08-16T08:31:44.496Z,65216.00
2018-08-16T08:32:44.451Z,58944.00
2018-08-16T08:33:44.475Z,56512.00
2018-08-16T08:34:44.470Z,54816.00
2018-08-16T08:35:44.478Z,35008.00
2018-08-16T08:36:44.483Z,12204.00
2018-08-16T08:37:44.496Z,8960.00
2018-08-16T08:38:44.692Z,7820.00
2018-08-16T08:39:44.514Z,7916.00
2018-08-16T08:40:44.529Z,8252.00
2018-08-16T08:41:44.535Z,10072.00
2018-08-16T08:42:44.619Z,12368.00
2018-08-16T08:43:44.553Z,13748.00
2018-08-16T08:44:44.558Z,8920.00
2018-08-16T08:45:44.785Z,8620.00
2018-08-16T08:46:44.574Z,8144.00
2018-08-16T08:47:44.584Z,7988.00
2018-08-16T08:48:44.774Z,7312.00
2018-08-16T08:49:44.600Z,7248.00
2018-08-16T08:50:44.610Z,7156.00
2018-08-16T08:51:44.616Z,7088.00
2018-08-16T08:52:44.620Z,7048.00
2018-08-16T08:53:44.630Z,6996.00
2018-08-16T08:54:44.638Z,6940.00
2018-08-16T08:55:44.644Z,6948.00
2018-08-16T08:56:44.815Z,6984.00
2018-08-16T08:57:44.662Z,6960.00
2018-08-16T08:58:44.667Z,7056.00
2018-08-16T08:59:44.673Z,7108.00
2018-08-16T09:00:44.679Z,6896.00
2018-08-16T09:01:44.684Z,6800.00
2018-08-16T09:02:44.691Z,6804.00
2018-08-16T09:03:44.702Z,6816.00
2018-08-16T09:04:44.705Z,6736.00
2018-08-16T09:05:44.710Z,6668.00
2018-08-16T09:06:44.750Z,6604.00
2018-08-16T09:07:44.719Z,6584.00
2018-08-16T09:08:44.730Z,6576.00
2018-08-16T09:09:44.737Z,6568.00
2018-08-16T09:10:44.740Z,6532.00
2018-08-16T09:11:44.747Z,6496.00
2018-08-16T09:12:44.753Z,6460.00
2018-08-16T09:13:44.773Z,6408.00
2018-08-16T09:14:44.795Z,6396.00
2018-08-16T09:15:44.774Z,6376.00
2018-08-16T09:16:44.783Z,6348.00
2018-08-16T09:17:44.782Z,6312.00
2018-08-16T09:18:44.787Z,6268.00
2018-08-16T09:19:44.884Z,6208.00
2018-08-16T09:20:44.803Z,6188.00
2018-08-16T09:21:44.803Z,6156.00
2018-08-16T09:22:44.808Z,6124.00
2018-08-16T09:23:44.815Z,6144.00
2018-08-16T09:24:44.858Z,6208.00
2018-08-16T09:25:44.823Z,6224.00
2018-08-16T09:26:44.830Z,6192.00
2018-08-16T09:27:44.847Z,6108.00
2018-08-16T09:28:44.929Z,6024.00
2018-08-16T09:29:44.850Z,6024.00
2018-08-16T09:30:44.854Z,6036.00
2018-08-16T09:31:44.980Z,6016.00
2018-08-16T09:32:44.871Z,5996.00
2018-08-16T09:33:44.868Z,6160.00
2018-08-16T09:34:44.873Z,6112.00
2018-08-16T09:35:44.879Z,5860.00
2018-08-16T09:36:44.885Z,5804.00
2018-08-16T09:37:44.958Z,5856.00
2018-08-16T09:38:44.900Z,5868.00
2018-08-16T09:39:45.004Z,5856.00
2018-08-16T09:40:45.052Z,5812.00
2018-08-16T09:41:44.910Z,5796.00
2018-08-16T09:42:44.916Z,5764.00
2018-08-16T09:43:44.919Z,5700.00
2018-08-16T09:44:44.928Z,5680.00
2018-08-16T09:45:44.993Z,5696.00
2018-08-16T09:46:44.939Z,5716.00
2018-08-16T09:47:44.950Z,5736.00
2018-08-16T09:48:44.951Z,5732.00
2018-08-16T09:49:44.956Z,5684.00
2018-08-16T09:50:44.958Z,5648.00
2018-08-16T09:51:45.038Z,5664.00
2018-08-16T09:52:44.967Z,5728.00
2018-08-16T09:53:44.973Z,5768.00
2018-08-16T09:54:44.977Z,5628.00
2018-08-16T09:55:44.982Z,5476.00
2018-08-16T09:56:44.989Z,5424.00
2018-08-16T09:57:44.990Z,5420.00
2018-08-16T09:58:45.005Z,5412.00
2018-08-16T09:59:45.011Z,5408.00
2018-08-16T10:00:45.019Z,5432.00
2018-08-16T10:01:45.013Z,5492.00
2018-08-16T10:02:45.022Z,5496.00
2018-08-16T10:03:45.023Z,5440.00
2018-08-16T10:04:45.032Z,5392.00
2018-08-16T10:05:45.031Z,5344.00
2018-08-16T10:06:45.041Z,5268.00
2018-08-16T10:07:45.046Z,5264.00
2018-08-16T10:08:45.051Z,5244.00
2018-08-16T10:09:45.055Z,5204.00
2018-08-16T10:10:45.071Z,5164.00
2018-08-16T10:11:45.065Z,5148.00
2018-08-16T10:12:45.079Z,5144.00
2018-08-16T10:13:45.074Z,5128.00
2018-08-16T10:14:45.080Z,5100.00
2018-08-16T10:15:45.088Z,5088.00
2018-08-16T10:16:45.091Z,5084.00
2018-08-16T10:17:45.098Z,5048.00
2018-08-16T10:18:45.099Z,5036.00
2018-08-16T10:19:45.111Z,5004.00
2018-08-16T10:20:45.174Z,5004.00
2018-08-16T10:21:45.119Z,4976.00
2018-08-16T10:22:45.119Z,4932.00
2018-08-16T10:23:45.123Z,4876.00
2018-08-16T10:24:45.125Z,4840.00
2018-08-16T10:25:45.142Z,4832.00
2018-08-16T10:26:45.140Z,4832.00
2018-08-16T10:27:45.144Z,4808.00
2018-08-16T10:28:45.148Z,4776.00
2018-08-16T10:29:45.154Z,4732.00
2018-08-16T10:30:45.167Z,4720.00
2018-08-16T10:31:45.164Z,4688.00
2018-08-16T10:32:45.171Z,4656.00
2018-08-16T10:33:45.179Z,4628.00
2018-08-16T10:34:45.180Z,4632.00
2018-08-16T10:35:45.187Z,4656.00
2018-08-16T10:36:45.192Z,4668.00
2018-08-16T10:37:45.195Z,4660.00
2018-08-16T10:38:45.201Z,4632.00
2018-08-16T10:39:45.205Z,4616.00
2018-08-16T10:40:45.228Z,4604.00
2018-08-16T10:41:45.219Z,4592.00
2018-08-16T10:42:45.221Z,4556.00
2018-08-16T10:43:45.227Z,4512.00
2018-08-16T10:44:45.229Z,4516.00
2018-08-16T10:45:45.232Z,4496.00
2018-08-16T10:46:45.248Z,4492.00
2018-08-16T10:47:45.246Z,4476.00
2018-08-16T10:48:45.254Z,4472.00
2018-08-16T10:49:45.260Z,4464.00
2018-08-16T10:50:45.255Z,4464.00
2018-08-16T10:51:45.282Z,4448.00
2018-08-16T10:52:45.279Z,4432.00
2018-08-16T10:53:45.275Z,4424.00
2018-08-16T10:54:45.354Z,4412.00
2018-08-16T10:55:45.285Z,4412.00
2018-08-16T10:56:45.297Z,4384.00
2018-08-16T10:57:45.291Z,4372.00
2018-08-16T10:58:45.332Z,4376.00
2018-08-16T10:59:45.310Z,4368.00
2018-08-16T11:00:45.306Z,4324.00
2018-08-16T11:01:45.318Z,4296.00
2018-08-16T11:02:45.322Z,4264.00
2018-08-16T11:03:45.326Z,4276.00
2018-08-16T11:04:45.332Z,4212.00
2018-08-16T11:05:45.396Z,4196.00
2018-08-16T11:06:45.343Z,4148.00
2018-08-16T11:07:45.461Z,4116.00
2018-08-16T11:08:45.350Z,4100.00
2018-08-16T11:09:45.356Z,4104.00
2018-08-16T11:10:45.360Z,4116.00
2018-08-16T11:11:45.418Z,4096.00
2018-08-16T11:12:45.371Z,4084.00
2018-08-16T11:13:45.383Z,4068.00
2018-08-16T11:14:45.389Z,4060.00
2018-08-16T11:15:45.389Z,4048.00
2018-08-16T11:16:45.440Z,4020.00
2018-08-16T11:17:45.419Z,4012.00
2018-08-16T11:18:45.437Z,3992.00
2018-08-16T11:19:45.449Z,4000.00
2018-08-16T11:20:45.426Z,3992.00
2018-08-16T11:21:45.418Z,4000.00
2018-08-16T11:22:45.425Z,4000.00
2018-08-16T11:23:45.454Z,4016.00
2018-08-16T11:24:45.440Z,4008.00
2018-08-16T11:25:45.447Z,3988.00
2018-08-16T11:26:45.451Z,3968.00
2018-08-16T11:27:45.464Z,3964.00
2018-08-16T11:28:45.451Z,3936.00
2018-08-16T11:29:45.514Z,3904.00
2018-08-16T11:30:45.467Z,3856.00
2018-08-16T11:31:45.470Z,3816.00
2018-08-16T11:32:45.566Z,3788.00
2018-08-16T11:33:45.486Z,3764.00
2018-08-16T11:34:45.488Z,3748.00
2018-08-16T11:35:45.490Z,3784.00
2018-08-16T11:36:45.610Z,3800.00
2018-08-16T11:37:45.564Z,3804.00
2018-08-16T11:38:45.506Z,3800.00
2018-08-16T11:39:45.514Z,3788.00
2018-08-16T11:40:45.524Z,3772.00
2018-08-16T11:41:45.522Z,3744.00
2018-08-16T11:42:45.527Z,3728.00
2018-08-16T11:43:45.532Z,3692.00
2018-08-16T11:44:45.536Z,3656.00
2018-08-16T11:45:45.541Z,3636.00
2018-08-16T11:46:45.551Z,3616.00
2018-08-16T11:47:45.552Z,3596.00
2018-08-16T11:48:45.559Z,3612.00
2018-08-16T11:49:45.562Z,3612.00
2018-08-16T11:50:45.625Z,3604.00
2018-08-16T11:51:45.651Z,3604.00
2018-08-16T11:52:45.576Z,3608.00
2018-08-16T11:53:45.632Z,3576.00
2018-08-16T11:54:45.607Z,3576.00
2018-08-16T11:55:45.595Z,3560.00
2018-08-16T11:56:45.601Z,3572.00
2018-08-16T11:57:45.604Z,3552.00
2018-08-16T11:58:45.750Z,3552.00
2018-08-16T11:59:45.620Z,3516.00
2018-08-16T12:00:45.623Z,3524.00
2018-08-16T12:01:45.625Z,3516.00
2018-08-16T12:02:45.643Z,3524.00
2018-08-16T12:03:45.636Z,3524.00
2018-08-16T12:04:45.644Z,3496.00
2018-08-16T12:05:45.649Z,3500.00
2018-08-16T12:06:45.655Z,3496.00
2018-08-16T12:07:45.676Z,3488.00
2018-08-16T12:08:45.667Z,3484.00
2018-08-16T12:09:45.667Z,3476.00
2018-08-16T12:10:45.672Z,3480.00
2018-08-16T12:11:45.678Z,3480.00
2018-08-16T12:12:45.685Z,3480.00
2018-08-16T12:13:45.691Z,3472.00
2018-08-16T12:14:45.738Z,3460.00
2018-08-16T12:15:45.705Z,3460.00
2018-08-16T12:16:46.066Z,3460.00
2018-08-16T12:17:45.707Z,3456.00
2018-08-16T12:18:45.718Z,3452.00
2018-08-16T12:19:45.725Z,3444.00
2018-08-16T12:20:45.722Z,3424.00
2018-08-16T12:21:45.750Z,3424.00